Time;durP1;ratioP1;P1;durP2;ratioP2;P2;SDS_P1;SDS_P2;PMS_P1;PMS_P2;Temp;Humidity;BMP_temperature;BMP_pressure;BME280_temperature;BME280_humidity;BME280_pressure;Samples;Min_cycle;Max_cycle;Signal;HPM_P1;HPM_P2
2023/05/04 00:03:14;;;;;;;0.00;0.00;;;;;;;-145.06;100.00;94731.50;10366205;28;20465;-74
2023/05/04 00:08:14;;;;;;;0.00;0.00;;;;;;;-145.06;100.00;94704.91;10369454;28;20018;-77
2023/05/04 00:13:15;;;;;;;0.00;0.00;;;;;;;-145.06;100.00;94721.25;10368924;28;20010;-75
2023/05/04 00:18:15;;;;;;;0.00;0.00;;;;;;;-145.06;100.00;94764.22;10383121;28;20034;-76
2023/05/04 00:23:15;;;;;;;0.00;0.00;;;;;;;-145.06;100.00;94737.63;10366785;28;20128;-76
2023/05/04 00:28:16;;;;;;;0.00;0.00;;;;;;;-145.06;100.00;94758.09;10382328;28;20017;-77
2023/05/04 00:33:16;;;;;;;0.10;0.10;;;;;;;-145.06;100.00;94737.63;10369036;28;20013;-76
2023/05/04 00:38:18;;;;;;;0.00;0.00;;;;;;;-145.06;100.00;94745.81;10383448;28;20026;-76
2023/05/04 00:43:18;;;;;;;0.00;0.00;;;;;;;-145.06;100.00;94768.31;10378554;28;20025;-76
2023/05/04 00:48:18;;;;;;;0.00;0.00;;;;;;;-145.06;100.00;94745.81;10393544;28;20421;-76
2023/05/04 00:53:19;;;;;;;0.10;0.10;;;;;;;-145.06;100.00;94776.50;10390320;28;20401;-77
2023/05/04 00:58:20;;;;;;;0.00;0.00;;;;;;;-145.06;100.00;94749.91;10387941;28;20276;-77
2023/05/04 01:03:20;;;;;;;0.05;0.05;;;;;;;-145.06;100.00;94745.81;10397805;28;20440;-77
2023/05/04 01:08:29;;;;;;;0.00;0.00;;;;;;;-145.06;100.00;94747.84;10391970;28;20051;-76
2023/05/04 01:13:33;;;;;;;0.00;0.00;;;;;;;-145.06;100.00;94766.28;10387588;28;20049;-76
2023/05/04 01:18:34;;;;;;;0.00;0.00;;;;;;;-145.06;100.00;94790.81;10386682;28;20081;-76
2023/05/04 01:23:34;;;;;;;0.05;0.05;;;;;;;-145.06;100.00;94766.28;10383119;28;20045;-76
2023/05/04 01:28:48;;;;;;;0.00;0.00;;;;;;;-145.06;100.00;94794.91;10376293;28;20024;-75
2023/05/04 01:33:51;;;;;;;0.00;0.00;;;;;;;-145.06;100.00;94792.88;10379711;28;20057;-76
2023/05/04 01:38:57;;;;;;;0.00;0.00;;;;;;;-145.06;100.00;94751.94;10395683;28;20026;-76
2023/05/04 01:43:57;;;;;;;0.00;0.00;;;;;;;-145.06;100.00;94770.38;10389853;28;20032;-74
2023/05/04 01:48:58;;;;;;;0.00;0.00;;;;;;;-145.06;100.00;94780.59;10380711;28;20348;-76
2023/05/04 01:53:58;;;;;;;0.10;0.10;;;;;;;-145.06;100.00;94756.03;10386875;28;20151;-76
2023/05/04 01:58:58;;;;;;;0.00;0.00;;;;;;;-145.06;100.00;94790.81;10367909;28;20323;-76
2023/05/04 02:03:59;;;;;;;0.00;0.00;;;;;;;-145.06;100.00;94801.06;10385737;28;20052;-77
2023/05/04 02:08:59;;;;;;;0.00;0.00;;;;;;;-145.06;100.00;94852.22;10386866;28;20033;-76
2023/05/04 02:13:59;;;;;;;0.00;0.00;;;;;;;-145.06;100.00;94862.44;10378467;28;20273;-76
2023/05/04 02:19:00;;;;;;;0.00;0.00;;;;;;;-145.06;100.00;94790.81;10373234;28;20449;-76
2023/05/04 02:24:00;;;;;;;0.10;0.10;;;;;;;-145.06;100.00;94803.09;10392155;28;20030;-76
2023/05/04 02:29:02;;;;;;;0.00;0.00;;;;;;;-145.06;100.00;94909.50;10369427;28;20756;-76
2023/05/04 02:34:02;;;;;;;0.03;0.03;;;;;;;-145.06;100.00;94821.50;10381280;28;20314;-77
2023/05/04 02:39:02;;;;;;;0.00;0.00;;;;;;;-145.06;100.00;94895.16;10380589;28;20072;-76
2023/05/04 02:44:03;;;;;;;0.10;0.10;;;;;;;-145.06;100.00;94815.38;10390041;28;20014;-77
2023/05/04 02:49:03;;;;;;;0.08;0.08;;;;;;;-145.06;100.00;94827.66;10376442;28;20032;-76
2023/05/04 02:54:03;;;;;;;0.00;0.00;;;;;;;-145.06;100.00;94831.75;10384219;28;20024;-76
2023/05/04 02:59:04;;;;;;;0.10;0.10;;;;;;;-145.06;100.00;94852.22;10388024;28;20051;-76
2023/05/04 03:04:06;;;;;;;0.00;0.00;;;;;;;-145.06;100.00;94815.38;10388510;28;20030;-77
2023/05/04 03:09:06;;;;;;;0.00;0.00;;;;;;;-145.06;100.00;94841.97;10385919;28;20256;-76
2023/05/04 03:14:06;;;;;;;0.00;0.00;;;;;;;-145.06;100.00;94813.34;10374338;28;20420;-75
2023/05/04 03:19:07;;;;;;;0.00;0.00;;;;;;;-145.06;100.00;94835.84;10370069;28;20476;-76
2023/05/04 03:24:07;;;;;;;0.00;0.00;;;;;;;-145.06;100.00;94819.47;10393745;28;20025;-76
2023/05/04 03:29:08;;;;;;;0.10;0.10;;;;;;;-145.06;100.00;94833.78;10382370;28;20021;-76
2023/05/04 03:34:11;;;;;;;0.10;0.10;;;;;;;-145.06;100.00;94837.88;10382785;28;20117;-76
2023/05/04 03:39:11;;;;;;;0.00;0.00;;;;;;;-145.06;100.00;94700.81;10380946;28;20477;-76
2023/05/04 03:44:12;;;;;;;0.10;0.10;;;;;;;-145.06;100.00;94308.00;10392493;28;20014;-76
2023/05/04 03:49:12;;;;;;;0.00;0.00;;;;;;;-145.06;100.00;94050.25;10385458;28;20366;-76
2023/05/04 03:54:13;;;;;;;0.10;0.10;;;;;;;-145.06;100.00;93890.72;10383362;28;20512;-76
2023/05/04 03:59:13;;;;;;;0.03;0.03;;;;;;;-145.06;100.00;93759.78;10342698;28;20057;-76
2023/05/04 04:04:13;;;;;;;0.00;0.00;;;;;;;-145.06;100.00;93727.06;10366143;28;20025;-76
2023/05/04 04:09:14;;;;;;;0.00;0.00;;;;;;;-145.06;100.00;93579.81;10385403;28;20500;-76
2023/05/04 04:14:15;;;;;;;0.00;0.00;;;;;;;-145.06;100.00;93408.00;10373131;28;20018;-77
2023/05/04 04:19:15;;;;;;;0.00;0.00;;;;;;;-145.06;100.00;93279.16;10377937;28;20468;-77
2023/05/04 04:24:15;;;;;;;0.00;0.00;;;;;;;-145.06;100.00;93150.31;10390398;28;20026;-76
2023/05/04 04:29:15;;;;;;;0.03;0.03;;;;;;;-145.06;100.00;93101.22;10364650;28;20021;-76
2023/05/04 04:34:16;;;;;;;0.10;0.10;;;;;;;-145.06;100.00;93375.28;10394116;28;20025;-77
2023/05/04 04:39:17;;;;;;;0.00;0.00;;;;;;;-145.06;100.00;93438.69;10391524;28;20030;-76
2023/05/04 04:44:17;;;;;;;0.00;0.00;;;;;;;-145.06;100.00;93506.16;10392595;28;20051;-76
2023/05/04 04:49:17;;;;;;;0.00;0.00;;;;;;;-145.06;100.00;93232.09;10375263;28;20257;-77
2023/05/04 04:54:18;;;;;;;0.00;0.00;;;;;;;-145.06;100.00;93162.56;10389471;28;20276;-77
2023/05/04 04:59:19;;;;;;;0.00;0.00;;;;;;;-145.06;99.26;92896.72;10391822;28;20280;-76
2023/05/04 05:04:22;;;;;;;0.00;0.00;;;;;;;-145.06;96.01;93262.78;10384780;28;20620;-77
2023/05/04 05:09:22;;;;;;;0.00;0.00;;;;;;;-145.06;99.16;93346.63;10393436;28;20041;-77
2023/05/04 05:14:23;;;;;;;0.00;0.00;;;;;;;-145.06;100.00;93377.31;10391085;28;20389;-77
2023/05/04 05:19:24;;;;;;;0.10;0.10;;;;;;;-145.06;100.00;93168.72;10392704;28;20265;-77
2023/05/04 05:24:24;;;;;;;0.05;0.05;;;;;;;-145.06;98.41;92908.97;10392628;28;20461;-76
2023/05/04 05:29:25;;;;;;;0.00;0.00;;;;;;;-145.06;94.92;93174.84;10372036;28;20026;-77
2023/05/04 05:34:26;;;;;;;0.00;0.00;;;;;;;-145.06;91.35;92884.44;10389801;28;20269;-76
2023/05/04 05:39:26;;;;;;;0.10;0.10;;;;;;;-145.06;82.35;92573.63;10389105;28;20022;-77
2023/05/04 05:44:27;;;;;;;0.10;0.10;;;;;;;-145.06;73.30;92565.44;10384223;28;20333;-77
2023/05/04 05:49:27;;;;;;;0.10;0.10;;;;;;;-145.06;69.27;92753.56;10394926;28;20071;-77
2023/05/04 05:54:30;;;;;;;0.10;0.10;;;;;;;-145.06;71.49;92561.34;10403921;28;20009;-77
2023/05/04 05:59:30;;;;;;;0.10;0.10;;;;;;;-145.06;67.77;92600.19;10387324;28;20029;-77
2023/05/04 06:04:30;;;;;;;0.10;0.10;;;;;;;-145.06;69.36;92761.75;10390572;28;20104;-78
2023/05/04 06:09:31;;;;;;;0.10;0.10;;;;;;;-145.06;70.91;92751.53;10397494;28;20495;-77
2023/05/04 06:14:32;;;;;;;0.10;0.10;;;;;;;-145.06;71.49;92759.69;10399457;28;20461;-76
2023/05/04 06:19:36;;;;;;;0.00;0.00;;;;;;;-145.06;64.99;92610.41;10388302;28;20042;-78
2023/05/04 06:24:37;;;;;;;0.10;0.10;;;;;;;-145.06;67.44;92853.78;10387102;28;20071;-78
2023/05/04 06:29:39;;;;;;;0.10;0.10;;;;;;;-145.06;68.46;92729.03;10396351;28;20542;-78
2023/05/04 06:34:39;;;;;;;0.10;0.10;;;;;;;-145.06;68.92;92794.47;10389125;28;20021;-78
2023/05/04 06:39:39;;;;;;;0.00;0.00;;;;;;;-145.06;68.13;92802.63;10405874;28;20044;-78
2023/05/04 06:44:40;;;;;;;0.10;0.10;;;;;;;-145.06;65.75;92784.25;10399958;28;20659;-78
2023/05/04 06:49:40;;;;;;;0.10;0.10;;;;;;;-145.06;62.48;92557.25;10391315;28;20404;-78
2023/05/04 06:54:41;;;;;;;0.10;0.10;;;;;;;-145.06;63.16;92547.03;10386243;28;20100;-78
2023/05/04 06:59:41;;;;;;;0.10;0.10;;;;;;;-145.06;59.10;92628.81;10366524;28;20045;-77
2023/05/04 07:04:41;;;;;;;0.10;0.10;;;;;;;-145.06;60.55;92712.66;10381304;28;20117;-77
2023/05/04 07:09:42;;;;;;;0.08;0.08;;;;;;;-145.06;61.90;92729.03;10367071;28;20030;-77
2023/05/04 07:14:42;;;;;;;0.00;0.00;;;;;;;-145.06;63.07;92786.28;10354084;28;20092;-75
2023/05/04 07:19:43;;;;;;;0.10;0.10;;;;;;;-145.06;62.34;92594.06;10371814;28;20025;-76
2023/05/04 07:24:43;;;;;;;0.00;0.00;;;;;;;-145.06;60.11;92604.28;10367701;28;20056;-76
2023/05/04 07:29:43;;;;;;;0.00;0.00;;;;;;;-145.06;60.07;92600.19;10375103;28;20500;-75
2023/05/04 07:34:44;;;;;;;0.10;0.10;;;;;;;-145.06;59.54;92489.78;10364065;28;20018;-77
2023/05/04 07:39:45;;;;;;;0.00;0.00;;;;;;;-145.06;54.12;92489.78;10370540;28;20041;-77
2023/05/04 07:44:45;;;;;;;0.00;0.00;;;;;;;-145.06;51.27;92581.78;10369747;28;20151;-77
2023/05/04 07:49:46;;;;;;;0.10;0.10;;;;;;;-145.06;50.79;92569.53;10373300;28;20025;-77
2023/05/04 07:54:46;;;;;;;0.10;0.10;;;;;;;-145.06;49.83;92377.31;10347167;28;20389;-77
2023/05/04 07:59:47;;;;;;;0.00;0.00;;;;;;;-145.06;50.20;92504.09;10366637;28;20080;-77
2023/05/04 08:04:47;;;;;;;0.00;0.00;;;;;;;-145.06;48.00;92459.09;10387798;28;20025;-76
2023/05/04 08:09:47;;;;;;;0.10;0.10;;;;;;;-145.06;48.28;92516.34;10379740;28;20032;-75
2023/05/04 08:14:48;;;;;;;0.10;0.10;;;;;;;-145.06;48.59;92528.63;10379456;28;20025;-74
2023/05/04 08:19:48;;;;;;;0.10;0.10;;;;;;;-145.06;49.53;92553.16;10377757;28;20030;-76
2023/05/04 08:24:48;;;;;;;0.10;0.10;;;;;;;-145.06;49.62;92557.25;10372400;28;20326;-76
2023/05/04 08:29:49;;;;;;;0.10;0.10;;;;;;;-145.06;50.34;92602.25;10385928;28;20507;-77
2023/05/04 08:34:50;;;;;;;0.10;0.10;;;;;;;-145.06;49.13;92540.91;10391869;28;20105;-77
2023/05/04 08:39:50;;;;;;;0.10;0.10;;;;;;;-145.06;49.57;92526.59;10375458;28;20167;-77
2023/05/04 08:44:51;;;;;;;0.10;0.10;;;;;;;-145.06;49.66;92577.69;10372498;28;20030;-77
2023/05/04 08:49:55;;;;;;;0.10;0.10;;;;;;;-145.06;51.17;92594.06;10362565;28;20029;-77
2023/05/04 08:54:57;;;;;;;0.10;0.10;;;;;;;-145.06;47.18;92467.28;10369858;28;20029;-76
2023/05/04 08:59:58;;;;;;;0.10;0.10;;;;;;;-145.06;48.09;92500.00;10369788;28;20109;-76
2023/05/04 09:05:00;;;;;;;0.10;0.10;;;;;;;-145.06;46.40;92571.56;10363371;28;20065;-76
2023/05/04 09:10:01;;;;;;;0.10;0.10;;;;;;;-145.06;49.08;92720.84;10360321;28;20029;-76
2023/05/04 09:15:14;;;;;;;0.10;0.10;;;;;;;-145.06;48.38;92724.94;10363880;28;20017;-77
2023/05/04 09:20:14;;;;;;;0.10;0.10;;;;;;;-145.06;48.84;92632.91;10384188;28;20040;-76
2023/05/04 09:25:15;;;;;;;0.10;0.10;;;;;;;-145.06;47.48;92630.88;10376188;28;20049;-76
2023/05/04 09:30:20;;;;;;;0.00;0.00;;;;;;;-145.06;48.28;92673.81;10383771;28;20022;-76
2023/05/04 09:35:28;;;;;;;0.10;0.10;;;;;;;-145.06;47.57;92634.97;10380687;28;20034;-76
2023/05/04 09:40:42;;;;;;;0.10;0.10;;;;;;;-145.06;47.83;92655.41;10375009;28;20025;-76
2023/05/04 09:45:44;;;;;;;0.10;0.10;;;;;;;-145.06;47.20;92598.16;10352125;28;20030;-76
2023/05/04 09:50:55;;;;;;;0.10;0.10;;;;;;;-145.06;47.10;92608.38;10371194;28;20033;-76
2023/05/04 09:56:10;;;;;;;0.10;0.10;;;;;;;-145.06;47.00;92577.69;10372064;28;20030;-76
2023/05/04 10:01:11;;;;;;;0.10;0.10;;;;;;;-145.06;45.67;92563.38;10367459;28;20117;-76
2023/05/04 10:06:11;;;;;;;0.00;0.00;;;;;;;-145.06;46.00;92532.72;10356852;28;20025;-76
2023/05/04 10:11:13;;;;;;;0.10;0.10;;;;;;;-145.06;45.07;92461.16;10354522;28;20056;-75
2023/05/04 10:16:28;;;;;;;0.00;0.00;;;;;;;-145.06;45.79;92418.22;10378401;28;20362;-75
2023/05/04 10:21:37;;;;;;;0.10;0.10;;;;;;;-145.06;43.88;92467.28;10364479;28;20025;-75
2023/05/04 10:26:46;;;;;;;0.10;0.10;;;;;;;-145.06;43.83;92553.16;10370260;28;20017;-76
2023/05/04 10:31:47;;;;;;;0.00;0.00;;;;;;;-145.06;44.41;92532.72;10372337;28;20029;-76
2023/05/04 10:36:47;;;;;;;0.10;0.10;;;;;;;-145.06;42.42;92524.53;10365322;28;20356;-75
2023/05/04 10:41:58;;;;;;;0.10;0.10;;;;;;;-145.06;45.05;92547.03;10365112;28;20026;-76
2023/05/04 10:47:05;;;;;;;0.00;0.00;;;;;;;-145.06;42.06;92479.56;10367912;28;20029;-76
2023/05/04 10:52:11;;;;;;;0.10;0.10;;;;;;;-145.06;41.93;92495.91;10388125;28;20033;-74
2023/05/04 10:57:16;;;;;;;0.08;0.08;;;;;;;-145.06;41.95;92542.94;10346108;28;20481;-76
2023/05/04 11:02:24;;;;;;;0.10;0.10;;;;;;;-145.06;42.44;92526.59;10371043;28;20071;-76
2023/05/04 11:07:38;;;;;;;0.00;0.00;;;;;;;-145.06;41.36;92463.19;10348330;28;20025;-76
2023/05/04 11:12:38;;;;;;;0.10;0.10;;;;;;;-145.06;38.34;92373.22;10367355;28;20429;-76
2023/05/04 11:17:50;;;;;;;0.00;0.00;;;;;;;-145.06;40.59;92399.81;10383722;28;20041;-75
2023/05/04 11:22:51;;;;;;;0.10;0.10;;;;;;;-145.06;39.05;92344.59;10364542;28;20041;-76
2023/05/04 11:27:52;;;;;;;0.10;0.10;;;;;;;-145.06;39.51;92385.50;10368703;28;20072;-75
2023/05/04 11:32:56;;;;;;;0.00;0.00;;;;;;;-145.06;39.52;92465.25;10368466;28;20033;-76
2023/05/04 11:37:56;;;;;;;0.00;0.00;;;;;;;-145.06;39.32;92479.56;10346970;28;20499;-75
2023/05/04 11:42:58;;;;;;;0.10;0.10;;;;;;;-145.06;39.92;92428.44;10345548;28;20160;-76
2023/05/04 11:47:59;;;;;;;0.00;0.00;;;;;;;-145.06;39.00;92457.06;10379474;28;20025;-74
2023/05/04 11:53:05;;;;;;;0.10;0.10;;;;;;;-145.06;41.76;92549.06;10369855;28;20467;-76
2023/05/04 11:58:08;;;;;;;0.00;0.00;;;;;;;-145.06;39.51;92479.56;10359501;28;20018;-75
2023/05/04 12:03:12;;;;;;;0.00;0.00;;;;;;;-145.06;39.06;92438.66;10375202;28;20116;-76
2023/05/04 12:08:26;;;;;;;0.10;0.10;;;;;;;-145.06;38.71;92426.38;10367838;28;20032;-76
2023/05/04 12:13:26;;;;;;;0.00;0.00;;;;;;;-145.06;38.34;92403.91;10351748;28;20045;-75
2023/05/04 12:18:28;;;;;;;0.10;0.10;;;;;;;-145.06;39.08;92493.88;10371122;28;20060;-76
2023/05/04 12:23:29;;;;;;;0.10;0.10;;;;;;;-145.06;38.26;92455.00;10346659;28;20026;-73
2023/05/04 12:28:30;;;;;;;0.10;0.10;;;;;;;-145.06;39.19;92448.88;10364583;28;20075;-75
2023/05/04 12:33:33;;;;;;;0.10;0.10;;;;;;;-145.06;37.63;92405.94;10350544;28;20076;-76
2023/05/04 12:38:33;;;;;;;0.05;0.05;;;;;;;-145.06;39.32;92442.75;10345040;28;20029;-76
2023/05/04 12:43:33;;;;;;;0.00;0.00;;;;;;;-145.06;39.66;92448.88;10354339;28;20373;-76
2023/05/04 12:48:34;;;;;;;0.10;0.10;;;;;;;-145.06;38.87;92512.28;10358734;28;20419;-77
2023/05/04 12:53:35;;;;;;;0.00;0.00;;;;;;;-145.06;38.48;92500.00;10378686;28;20018;-76
2023/05/04 12:58:35;;;;;;;0.10;0.10;;;;;;;-145.06;38.03;92524.53;10368876;28;20080;-76
2023/05/04 13:03:36;;;;;;;0.00;0.00;;;;;;;-145.06;39.47;92422.28;10354473;28;20025;-75
2023/05/04 13:08:36;;;;;;;0.10;0.10;;;;;;;-145.06;38.92;92432.53;10368988;28;20086;-74
2023/05/04 13:13:36;;;;;;;0.10;0.10;;;;;;;-145.06;38.26;92471.38;10422020;23;20111;-75
2023/05/04 13:18:37;;;;;;;0.10;0.10;;;;;;;-145.06;39.40;92475.47;10375431;28;20092;-76
2023/05/04 13:23:37;;;;;;;0.10;0.10;;;;;;;-145.06;38.53;92444.78;10373804;28;20036;-76
2023/05/04 13:28:37;;;;;;;0.10;0.10;;;;;;;-145.06;36.89;92371.19;10373043;28;20504;-76
2023/05/04 13:33:38;;;;;;;0.00;0.00;;;;;;;-145.06;36.83;92350.72;10369195;28;20022;-76
2023/05/04 13:38:38;;;;;;;0.10;0.10;;;;;;;-145.06;37.91;92412.06;10382475;28;20033;-76
2023/05/04 13:43:38;;;;;;;0.00;0.00;;;;;;;-145.06;36.92;92438.66;10371789;28;20067;-76
2023/05/04 13:48:38;;;;;;;0.10;0.10;;;;;;;-145.06;38.53;92461.16;10376458;28;20014;-76
2023/05/04 13:53:39;;;;;;;0.00;0.00;;;;;;;-145.06;38.84;92434.56;10372808;28;20024;-76
2023/05/04 13:58:39;;;;;;;0.10;0.10;;;;;;;-145.06;37.18;92422.28;10371700;28;20030;-76
2023/05/04 14:03:39;;;;;;;0.10;0.10;;;;;;;-145.06;36.61;92434.56;10372149;28;20080;-75
2023/05/04 14:08:40;;;;;;;0.10;0.10;;;;;;;-145.06;37.10;92587.94;10376122;28;20040;-76
2023/05/04 14:13:40;;;;;;;0.10;0.10;;;;;;;-145.06;37.55;92459.09;10370647;28;20022;-76
2023/05/04 14:18:40;;;;;;;0.00;0.00;;;;;;;-145.06;37.89;92434.56;10369849;28;20108;-76
2023/05/04 14:23:41;;;;;;;0.00;0.00;;;;;;;-145.06;37.82;92389.59;10375250;28;20080;-76
2023/05/04 14:28:41;;;;;;;0.10;0.10;;;;;;;-145.06;37.88;92414.13;10371606;28;20113;-76
2023/05/04 14:33:42;;;;;;;0.10;0.10;;;;;;;-145.06;38.81;92414.13;10370123;28;20025;-76
2023/05/04 14:38:42;;;;;;;0.10;0.10;;;;;;;-145.06;37.62;92401.84;10370272;28;20023;-76
2023/05/04 14:43:42;;;;;;;0.10;0.10;;;;;;;-145.06;38.13;92446.84;10370204;28;20296;-76
2023/05/04 14:48:42;;;;;;;0.10;0.10;;;;;;;-145.06;37.11;92504.09;10370156;28;20370;-76
2023/05/04 14:53:45;;;;;;;0.10;0.10;;;;;;;-145.06;37.01;92459.09;10369482;28;20396;-76
2023/05/04 14:58:46;;;;;;;0.10;0.10;;;;;;;-145.06;37.01;92465.25;10369992;28;20303;-76
2023/05/04 15:03:46;;;;;;;0.10;0.10;;;;;;;-145.06;38.00;92518.41;10365991;28;20091;-76
2023/05/04 15:08:47;;;;;;;0.00;0.00;;;;;;;-145.06;38.55;92520.44;10367101;28;20022;-76
2023/05/04 15:13:47;;;;;;;0.10;0.10;;;;;;;-145.06;38.61;92567.47;10369062;28;20029;-75
2023/05/04 15:18:47;;;;;;;0.00;0.00;;;;;;;-145.06;38.71;92583.84;10367260;28;20022;-75
2023/05/04 15:23:47;;;;;;;0.00;0.00;;;;;;;-145.06;38.70;92600.19;10368219;28;20033;-75
2023/05/04 15:28:48;;;;;;;0.10;0.10;;;;;;;-145.06;38.11;92596.09;10366962;28;20041;-76
2023/05/04 15:33:48;;;;;;;0.10;0.10;;;;;;;-145.06;39.23;92610.41;10367379;28;20057;-76
2023/05/04 15:38:49;;;;;;;0.10;0.10;;;;;;;-145.06;45.57;92774.00;10371146;28;20018;-75
2023/05/04 15:43:49;;;;;;;0.10;0.10;;;;;;;-145.06;48.39;92841.50;10374947;28;20080;-75
2023/05/04 15:48:49;;;;;;;0.00;0.00;;;;;;;-145.06;50.08;92874.22;10368058;28;20277;-75
2023/05/04 15:53:50;;;;;;;0.10;0.10;;;;;;;-145.06;52.72;92939.66;10368011;28;20072;-74
2023/05/04 15:58:50;;;;;;;0.10;0.10;;;;;;;-145.06;54.56;92937.63;10367053;28;20022;-76
2023/05/04 16:03:52;;;;;;;0.10;0.10;;;;;;;-145.06;52.36;92884.44;10363305;28;20052;-77
2023/05/04 16:08:52;;;;;;;0.10;0.10;;;;;;;-145.06;53.82;92953.97;10367703;28;20038;-77
2023/05/04 16:13:53;;;;;;;0.00;0.00;;;;;;;-145.06;54.65;92978.50;10375460;28;20469;-77
2023/05/04 16:18:53;;;;;;;0.10;0.10;;;;;;;-145.06;54.43;93027.59;10367927;28;20028;-76
2023/05/04 16:23:54;;;;;;;0.00;0.00;;;;;;;-145.06;57.84;93107.34;10373304;28;20032;-76
2023/05/04 16:28:55;;;;;;;0.10;0.10;;;;;;;-145.06;56.77;93084.84;10378037;28;20032;-76
2023/05/04 16:33:55;;;;;;;0.10;0.10;;;;;;;-145.06;56.78;93091.00;10375378;28;20017;-76
2023/05/04 16:38:56;;;;;;;0.10;0.10;;;;;;;-145.06;58.13;93146.22;10377009;28;20018;-76
2023/05/04 16:43:56;;;;;;;0.10;0.10;;;;;;;-145.06;59.36;93217.78;10373304;28;20018;-76
2023/05/04 16:48:56;;;;;;;0.10;0.10;;;;;;;-145.06;60.49;93240.28;10373845;28;20076;-76
2023/05/04 16:53:56;;;;;;;0.10;0.10;;;;;;;-145.06;61.32;93154.38;10375123;28;20018;-76
2023/05/04 16:58:57;;;;;;;0.10;0.10;;;;;;;-145.06;63.17;93264.81;10375068;28;20025;-76
2023/05/04 17:03:57;;;;;;;0.00;0.00;;;;;;;-145.06;63.02;93244.38;10374261;28;20025;-76
2023/05/04 17:08:57;;;;;;;0.10;0.10;;;;;;;-145.06;61.78;93309.81;10374129;28;20495;-76
2023/05/04 17:13:58;;;;;;;0.10;0.10;;;;;;;-145.06;61.96;93348.69;10374083;28;20327;-76
2023/05/04 17:18:59;;;;;;;0.10;0.10;;;;;;;-145.06;64.96;93426.41;10373876;28;20492;-76
2023/05/04 17:23:59;;;;;;;0.08;0.08;;;;;;;-145.06;66.83;93545.03;10372873;28;20037;-76
2023/05/04 17:29:00;;;;;;;0.10;0.10;;;;;;;-145.06;66.42;93614.56;10376092;28;20022;-76
2023/05/04 17:34:00;;;;;;;0.10;0.10;;;;;;;-145.06;66.65;93898.88;10366201;28;20072;-76
2023/05/04 17:39:00;;;;;;;0.10;0.10;;;;;;;-145.06;67.80;93919.34;10378103;28;20427;-76
2023/05/04 17:44:01;;;;;;;0.20;0.20;;;;;;;-145.06;69.26;93950.03;10370599;28;20041;-76
2023/05/04 17:49:01;;;;;;;0.00;0.00;;;;;;;-145.06;69.18;93962.28;10376276;28;20026;-76
2023/05/04 17:54:01;;;;;;;0.10;0.10;;;;;;;-145.06;70.36;94152.53;10379447;28;20253;-76
2023/05/04 17:59:02;;;;;;;0.10;0.10;;;;;;;-145.06;69.88;94099.34;10367028;28;20092;-76
2023/05/04 18:04:03;;;;;;;0.10;0.10;;;;;;;-145.06;70.48;94128.00;10368953;28;20531;-76
2023/05/04 18:09:03;;;;;;;0.00;0.00;;;;;;;-145.06;71.90;94144.34;10369444;28;20046;-76
2023/05/04 18:14:03;;;;;;;0.10;0.10;;;;;;;-145.06;72.77;94168.91;10369385;28;20018;-76
2023/05/04 18:19:05;;;;;;;0.00;0.00;;;;;;;-145.06;72.67;94197.53;10368815;28;20081;-76
2023/05/04 18:24:15;;;;;;;0.10;0.10;;;;;;;-145.06;75.61;94213.91;10365136;28;20076;-75
2023/05/04 18:29:15;;;;;;;0.10;0.10;;;;;;;-145.06;75.61;94248.69;10367541;28;20020;-76
2023/05/04 18:34:16;;;;;;;0.10;0.10;;;;;;;-145.06;76.70;94248.69;10368857;28;20022;-76
2023/05/04 18:39:16;;;;;;;0.10;0.10;;;;;;;-145.06;79.72;94260.97;10368520;28;20026;-75
2023/05/04 18:44:16;;;;;;;0.00;0.00;;;;;;;-145.06;83.60;94334.59;10367754;28;20017;-75
2023/05/04 18:49:17;;;;;;;0.10;0.10;;;;;;;-145.06;85.83;94308.00;10368373;28;20068;-75
2023/05/04 18:54:17;;;;;;;0.00;0.00;;;;;;;-145.06;85.03;94310.06;10367581;28;20018;-76
2023/05/04 18:59:17;;;;;;;0.10;0.10;;;;;;;-145.06;80.98;94336.66;10366785;28;20026;-75
2023/05/04 19:04:18;;;;;;;0.10;0.10;;;;;;;-145.06;79.77;94279.38;10366698;28;20022;-75
2023/05/04 19:09:19;;;;;;;0.10;0.10;;;;;;;-145.06;79.62;94285.50;10367406;28;20029;-75
2023/05/04 19:14:20;;;;;;;0.00;0.00;;;;;;;-145.06;80.46;94299.81;10430685;23;20172;-75
2023/05/04 19:19:21;;;;;;;0.10;0.10;;;;;;;-145.06;80.67;94295.72;10438047;28;20032;-75
2023/05/04 19:24:21;;;;;;;0.05;0.05;;;;;;;-145.06;80.08;94299.81;10435908;28;20040;-76
2023/05/04 19:29:21;;;;;;;0.10;0.10;;;;;;;-145.06;81.03;94299.81;10421828;28;20022;-75
2023/05/04 19:34:22;;;;;;;0.00;0.00;;;;;;;-145.06;80.78;94320.28;10417653;28;20456;-76
2023/05/04 19:39:22;;;;;;;0.00;0.00;;;;;;;-145.06;81.86;94295.72;10416998;28;20021;-76
2023/05/04 19:44:22;;;;;;;0.10;0.10;;;;;;;-145.06;83.08;94359.16;10424526;28;20283;-76
2023/05/04 19:49:23;;;;;;;0.00;0.00;;;;;;;-145.06;84.50;94324.38;10423291;28;20034;-76
2023/05/04 19:54:24;;;;;;;0.00;0.00;;;;;;;-145.06;87.84;94344.84;10429504;28;20117;-76
2023/05/04 19:59:24;;;;;;;0.00;0.00;;;;;;;-145.06;91.62;94334.59;10424057;28;20112;-75
2023/05/04 20:04:24;;;;;;;0.00;0.00;;;;;;;-145.06;93.76;94377.56;10423699;28;20029;-76
2023/05/04 20:09:25;;;;;;;0.00;0.00;;;;;;;-145.06;95.92;94373.47;10430501;28;20290;-76
2023/05/04 20:14:25;;;;;;;0.10;0.10;;;;;;;-145.06;99.23;94420.53;10428691;28;20037;-76
2023/05/04 20:19:26;;;;;;;0.03;0.03;;;;;;;-145.06;100.00;94406.19;10432629;28;20020;-75
2023/05/04 20:24:26;;;;;;;0.00;0.00;;;;;;;-145.06;100.00;94381.66;10446766;28;20112;-76
2023/05/04 20:29:27;;;;;;;0.00;0.00;;;;;;;-145.06;100.00;94418.47;10428660;28;20108;-76
2023/05/04 20:34:28;;;;;;;0.10;0.10;;;;;;;-145.06;100.00;94434.84;10425555;28;20365;-76
2023/05/04 20:39:28;;;;;;;0.00;0.00;;;;;;;-145.06;100.00;94400.06;10423987;28;20108;-76
2023/05/04 20:44:29;;;;;;;0.00;0.00;;;;;;;-145.06;100.00;94496.22;10425563;28;20537;-76
2023/05/04 20:49:29;;;;;;;0.00;0.00;;;;;;;-145.06;100.00;94492.13;10426145;28;20071;-76
2023/05/04 20:54:30;;;;;;;0.10;0.10;;;;;;;-145.06;100.00;94514.63;10438284;28;20018;-76
2023/05/04 20:59:30;;;;;;;0.00;0.00;;;;;;;-145.06;100.00;94496.22;10423117;28;20108;-76
2023/05/04 21:04:30;;;;;;;0.00;0.00;;;;;;;-145.06;100.00;94586.25;10424241;28;20025;-76
2023/05/04 21:09:31;;;;;;;0.00;0.00;;;;;;;-145.06;100.00;94535.09;10418536;28;20371;-76
2023/05/04 21:14:31;;;;;;;0.00;0.00;;;;;;;-145.06;100.00;94541.22;10416155;28;20264;-76
2023/05/04 21:19:31;;;;;;;0.00;0.00;;;;;;;-145.06;100.00;94516.69;10427086;28;20052;-76
2023/05/04 21:24:32;;;;;;;0.00;0.00;;;;;;;-145.06;100.00;94543.28;10428765;28;20674;-76
2023/05/04 21:29:32;;;;;;;0.00;0.00;;;;;;;-145.06;100.00;94522.81;10426425;28;20274;-75
2023/05/04 21:34:32;;;;;;;0.00;0.00;;;;;;;-145.06;100.00;94533.03;10434842;28;20030;-75
2023/05/04 21:39:33;;;;;;;0.00;0.00;;;;;;;-145.06;100.00;94537.13;10421029;28;20028;-76
2023/05/04 21:44:33;;;;;;;0.00;0.00;;;;;;;-145.06;100.00;94506.44;10423194;28;20294;-76
2023/05/04 21:49:33;;;;;;;0.00;0.00;;;;;;;-145.06;100.00;94455.31;10420316;28;20021;-76
2023/05/04 21:54:35;;;;;;;0.00;0.00;;;;;;;-145.06;100.00;94492.13;10423014;28;20387;-76
2023/05/04 21:59:35;;;;;;;0.00;0.00;;;;;;;-145.06;100.00;94471.66;10425213;28;20049;-77
2023/05/04 22:04:35;;;;;;;0.00;0.00;;;;;;;-145.06;100.00;94447.13;10417480;28;20069;-77
2023/05/04 22:09:36;;;;;;;0.00;0.00;;;;;;;-145.06;100.00;94434.84;10432305;28;20026;-76
2023/05/04 22:14:37;;;;;;;0.00;0.00;;;;;;;-145.06;100.00;94422.56;10427755;28;20642;-76
2023/05/04 22:19:37;;;;;;;0.00;0.00;;;;;;;-145.06;100.00;94428.72;10424202;28;20619;-76
2023/05/04 22:24:37;;;;;;;0.00;0.00;;;;;;;-145.06;100.00;94422.56;10419327;28;20025;-76
2023/05/04 22:29:38;;;;;;;0.00;0.00;;;;;;;-145.06;100.00;94479.84;10419855;28;20039;-76
2023/05/04 22:34:38;;;;;;;0.00;0.00;;;;;;;-145.06;100.00;94389.84;10423325;28;20146;-76
2023/05/04 22:39:38;;;;;;;0.00;0.00;;;;;;;-145.06;100.00;94375.53;10435848;28;20260;-76
2023/05/04 22:44:38;;;;;;;0.00;0.00;;;;;;;-145.06;100.00;94334.59;10429801;28;20021;-76